This demonstration page uses our WeatherBlox Daily Observations layout. Learn more.

38.88101, -77.10428

Hourly Observations for March 26, 2018

Temp ( °F °C ) Dew Point ( °F °C ) Humidity (%) Winds ( mph kmh ) Pressure ( in mb ) Visibility ( mi km ) Precip ( " mm )
12:52 am 00:52 Mostly Cloudy 38 3.3 30 -1.1 73 73 E 5 7 30.58 1036 10 16.0934 0 0
1:52 am 01:52 Partly Cloudy 38 3.3 30 -1.1 73 73 NE 3 6 30.59 1036 10 16.0934 0 0
2:52 am 02:52 Mostly Clear 37 2.8 31 -0.6 79 79 ENE 7 11 30.6 1036 10 16.0934 0 0
4:52 am 04:52 Mostly Clear 35 1.7 30 -1.1 82 82 NE 6 9 30.6 1036 10 16.0934 0 0
5:52 am 05:52 Mostly Clear 35 1.7 30 -1.1 82 82 NE 6 9 30.61 1037 10 16.0934 0 0
6:52 am 06:52 Clear 34 1.1 29 -1.7 82 82 NE 6 9 30.63 1037 10 16.0934 0 0
7:52 am 07:52 Sunny 36 2.2 30 -1.1 79 79 NE 7 11 30.66 1038 10 16.0934 0 0
8:52 am 08:52 Mostly Sunny 39 3.9 29 -1.7 67 67 NE 9 15 30.67 1039 10 16.0934 0 0
9:52 am 09:52 Mostly Sunny 41 5 26 -3.3 55 55 E 8 13 30.69 1039 10 16.0934 0 0
10:52 am 10:52 Mostly Sunny 45 7.2 22 -5.6 40 40 E 14 22 30.7 1040 10 16.0934 0 0
11:52 am 11:52 Mostly Sunny 46 7.8 22 -5.6 38 38 ENE 12 19 30.7 1040 10 16.0934 0 0
12:52 pm 12:52 Mostly Sunny 47 8.3 23 -5 39 39 ENE 13 20 30.68 1039 10 16.0934 0 0
1:52 pm 13:52 Mostly Sunny 48 8.9 25 -3.9 41 41 ESE 10 17 30.67 1039 10 16.0934 0 0
2:52 pm 14:52 Mostly Sunny 48 8.9 25 -3.9 41 41 ESE 12 19 30.64 1038 10 16.0934 0 0
3:52 pm 15:52 Mostly Sunny 49 9.4 25 -3.9 39 39 E 9 15 30.63 1037 10 16.0934 0 0
4:52 pm 16:52 Mostly Sunny 48 8.9 26 -3.3 42 42 ESE 12 19 30.62 1037 10 16.0934 0 0
5:52 pm 17:52 Mostly Sunny 47 8.3 26 -3.3 44 44 SE 13 20 30.62 1037 10 16.0934 0 0
6:52 pm 18:52 Partly Cloudy 45 7.2 26 -3.3 48 48 E 9 15 30.64 1038 10 16.0934 0 0
7:52 pm 19:52 Partly Cloudy 43 6.1 26 -3.3 51 51 SE 6 9 30.63 1037 10 16.0934 0 0
8:52 pm 20:52 Partly Cloudy 42 5.6 26 -3.3 53 53 SSE 6 9 30.66 1038 10 16.0934 0 0
9:52 pm 21:52 Partly Cloudy 41 5 28 -2.2 60 60 SSE 10 17 30.68 1039 10 16.0934 0 0
10:52 pm 22:52 Mostly Cloudy 40 4.4 28 -2.2 63 63 SE 8 13 30.68 1039 10 16.0934 0 0
11:52 pm 23:52 Cloudy 38 3.3 28 -2.2 68 68 SE 8 13 30.67 1039 10 16.0934 0 0

Powered by AerisWeather